Airfield :
LOGIN :

Register | Disclaimer

   EN    FR    IT 

 










Legend :    VFR   Marginal VFR   IFR   Intensive IFR   Very Intensive IFR
Visi :
Ceiling :
>= 8 km
>= 3000ft
5 to 8 km
1000 to 3000 ft
1500m to 5 km
500 to 1000 ft
800 to 1500m
200 to 500 ft
< 800m
< 200 ft
Symbols :   Thunderstorms  Fog  Heavy snow  Heavy precipitations  Wind > 20 kt
SIGMETs :     Misc.  Thunderstorms  Icing  Turbulence  Mountain Waves  Volcanic Ashes






- Airport Elevation : 876 ft
- IATA code : MBX


LJMB - Maribor

CURRENT METAR :
  • 280630Z 23005KT 9999 -RA FEW023 OVC044 12/11 Q1017 RERA

EXPIRED METARs :
  • 280600Z VRB01KT 9999 RA FEW023 OVC041 13/11 Q1017
  • 280530Z AUTO VRB01KT 9999 -RA OVC041/// 13/11 Q1016 RERA
  • 280500Z AUTO 00000KT 9999 DZ FEW037/// OVC044/// 13/10 Q1016
  • 280430Z AUTO VRB01KT 9999 -RA BKN040/// OVC055/// 14/11 Q1016

TAF TAF LJMB
Valid from the 28 at 06:00 until the 29 at 06:00 UTC


280500Z 2806/2906 VRB03KT 9999 SCT030 BKN050
TEMPO 2806/2906 RA



MET'MAP, your aeronautical weather chart ! - Copyright ORBIFLY December 2007 - Disclaimer

ORBIFLY MET'MAP TEAM :

Programming & Development : Alexandra Zaïnal
Original concept : Baudouin d'Aumeries
Technical & hardware support : Manuel Goepfert
Assistance : Marc-Olivier Méhu

Contact : metmap@orbifly.com




SOURCES & CREDITS :

   NOAA